createdAt,value
2023-04-16T00:00:22.573Z,14.87
2023-04-16T00:02:50.758Z,16.43
2023-04-16T00:05:19.146Z,15.30
2023-04-16T00:07:47.301Z,15.60
2023-04-16T00:10:16.015Z,15.47
2023-04-16T00:12:45.482Z,15.80
2023-04-16T00:15:13.508Z,16.23
2023-04-16T00:17:41.796Z,16.60
2023-04-16T00:20:11.560Z,16.00
2023-04-16T00:22:39.943Z,15.90
2023-04-16T00:25:08.653Z,16.10
2023-04-16T00:27:36.771Z,15.83
2023-04-16T00:30:07.546Z,16.43
2023-04-16T00:32:35.842Z,16.07
2023-04-16T00:35:04.075Z,16.00
2023-04-16T00:37:32.194Z,16.80
2023-04-16T00:40:00.557Z,16.23
2023-04-16T00:42:28.676Z,16.07
2023-04-16T00:44:56.752Z,16.33
2023-04-16T00:47:28.023Z,16.47
2023-04-16T00:49:56.175Z,15.97
2023-04-16T00:52:24.224Z,15.30
2023-04-16T00:54:52.306Z,15.90
2023-04-16T00:57:23.957Z,16.30
2023-04-16T00:59:52.482Z,16.23
2023-04-16T01:02:20.586Z,15.77
2023-04-16T01:04:50.070Z,15.93
2023-04-16T01:07:20.915Z,16.63
2023-04-16T01:09:48.964Z,16.00
2023-04-16T01:12:17.052Z,15.60
2023-04-16T01:14:45.176Z,16.40
2023-04-16T01:17:13.402Z,15.50
2023-04-16T01:19:41.506Z,16.00
2023-04-16T01:22:11.078Z,16.57
2023-04-16T01:24:39.620Z,16.53
2023-04-16T01:27:07.768Z,16.60
2023-04-16T01:29:36.175Z,16.40
2023-04-16T01:32:04.198Z,15.70
2023-04-16T01:34:32.228Z,15.00
2023-04-16T01:37:00.261Z,15.33
2023-04-16T01:39:29.681Z,14.83
2023-04-16T01:41:57.655Z,15.03
2023-04-16T01:44:25.740Z,15.53
2023-04-16T01:46:53.887Z,15.20
2023-04-16T01:49:22.083Z,14.90
2023-04-16T01:51:50.134Z,14.27
2023-04-16T01:54:18.238Z,14.30
2023-04-16T01:56:47.664Z,15.50
2023-04-16T01:59:15.775Z,14.73
2023-04-16T02:01:44.050Z,14.80
2023-04-16T02:04:13.816Z,15.40
2023-04-16T02:06:41.989Z,13.80
2023-04-16T02:09:10.220Z,14.00
2023-04-16T02:11:38.634Z,14.10
2023-04-16T02:14:08.686Z,13.77
2023-04-16T02:16:36.855Z,14.10
2023-04-16T02:19:04.966Z,14.10
2023-04-16T02:21:33.024Z,14.30
2023-04-16T02:24:01.102Z,14.03
2023-04-16T02:26:29.692Z,14.40
2023-04-16T02:28:57.748Z,14.87
2023-04-16T02:31:28.555Z,14.63
2023-04-16T02:33:56.660Z,14.40
2023-04-16T02:36:25.018Z,15.00
2023-04-16T02:38:53.072Z,14.77
2023-04-16T02:41:21.457Z,14.60
2023-04-16T02:43:49.534Z,15.40
2023-04-16T02:46:17.823Z,14.07
2023-04-16T02:48:47.360Z,15.00
2023-04-16T02:51:15.414Z,14.80
2023-04-16T02:53:45.920Z,14.63
2023-04-16T02:56:14.345Z,14.80
2023-04-16T02:58:42.471Z,14.93
2023-04-16T03:01:11.049Z,15.37
2023-04-16T03:03:39.161Z,14.40
2023-04-16T03:06:08.643Z,14.27
2023-04-16T03:08:36.712Z,14.50
2023-04-16T03:11:04.946Z,15.53
2023-04-16T03:13:33.001Z,14.43
2023-04-16T03:16:01.163Z,14.90
2023-04-16T03:18:29.353Z,14.70
2023-04-16T03:20:57.469Z,14.67
2023-04-16T03:23:28.171Z,15.50
2023-04-16T03:25:56.218Z,15.47
2023-04-16T03:28:24.369Z,14.83
2023-04-16T03:30:53.531Z,15.70
2023-04-16T03:33:22.804Z,15.73
2023-04-16T03:35:57.458Z,16.70
2023-04-16T03:38:27.289Z,16.17
2023-04-16T03:40:55.376Z,17.03
2023-04-16T03:43:23.502Z,16.13
2023-04-16T03:45:51.771Z,16.97
2023-04-16T03:48:19.839Z,15.80
2023-04-16T03:50:48.557Z,16.60
2023-04-16T03:53:16.613Z,17.00
2023-04-16T03:55:46.021Z,16.20
2023-04-16T03:58:14.052Z,16.03
2023-04-16T04:00:43.755Z,15.70
2023-04-16T04:03:12.058Z,15.60
2023-04-16T04:05:41.249Z,15.50
2023-04-16T04:08:09.643Z,16.00
2023-04-16T04:10:37.825Z,16.07
2023-04-16T04:13:08.394Z,16.10
2023-04-16T04:15:36.616Z,15.00
2023-04-16T04:18:04.780Z,16.03
2023-04-16T04:20:32.826Z,16.43
2023-04-16T04:23:00.911Z,16.53
2023-04-16T04:25:29.070Z,16.43
2023-04-16T04:27:57.157Z,15.30
2023-04-16T04:30:26.597Z,16.07
2023-04-16T04:32:54.771Z,15.93
2023-04-16T04:35:22.889Z,15.03
2023-04-16T04:37:50.987Z,15.00
2023-04-16T04:40:19.076Z,15.70
2023-04-16T04:42:47.182Z,15.30
2023-04-16T04:45:15.299Z,15.27
2023-04-16T04:47:44.901Z,16.10
2023-04-16T04:50:13.017Z,16.30
2023-04-16T04:52:41.056Z,15.07
2023-04-16T04:55:09.657Z,15.07
2023-04-16T04:57:37.758Z,16.23
2023-04-16T05:00:06.530Z,15.07
2023-04-16T05:02:34.773Z,16.63
2023-04-16T05:05:04.409Z,16.37
2023-04-16T05:07:32.661Z,15.93
2023-04-16T05:10:01.189Z,17.40
2023-04-16T05:12:29.297Z,17.73
2023-04-16T05:14:57.365Z,16.67
2023-04-16T05:17:25.458Z,17.30
2023-04-16T05:19:53.856Z,16.70
2023-04-16T05:22:23.331Z,17.53
2023-04-16T05:24:51.356Z,16.20
2023-04-16T05:27:19.476Z,16.83
2023-04-16T05:29:47.571Z,18.47
2023-04-16T05:32:16.174Z,19.40
2023-04-16T05:34:44.298Z,19.77
2023-04-16T05:37:12.540Z,20.30
2023-04-16T05:39:41.947Z,21.20
2023-04-16T05:42:10.050Z,21.60
2023-04-16T05:44:38.092Z,21.87
2023-04-16T05:47:07.329Z,21.47
2023-04-16T05:49:35.560Z,23.03
2023-04-16T05:52:07.480Z,22.33
2023-04-16T05:54:35.611Z,22.90
2023-04-16T05:57:05.355Z,21.40
2023-04-16T05:59:34.452Z,22.00
2023-04-16T06:02:02.566Z,23.10
2023-04-16T06:04:31.015Z,24.03
2023-04-16T06:06:59.056Z,23.33
2023-04-16T06:09:27.241Z,23.30
2023-04-16T06:11:55.490Z,23.40
2023-04-16T06:14:24.916Z,24.80
2023-04-16T06:16:52.950Z,23.73
2023-04-16T06:19:21.020Z,23.70
2023-04-16T06:21:49.074Z,24.17
2023-04-16T06:24:18.423Z,24.13
2023-04-16T06:26:46.645Z,24.23
2023-04-16T06:29:15.259Z,22.83
2023-04-16T06:31:44.804Z,25.00
2023-04-16T06:34:12.942Z,24.90
2023-04-16T06:36:41.184Z,24.90
2023-04-16T06:39:09.463Z,25.73
2023-04-16T06:41:37.872Z,24.67
2023-04-16T06:44:06.124Z,25.30
2023-04-16T06:46:34.237Z,26.67
2023-04-16T06:49:03.709Z,25.07
2023-04-16T06:51:31.858Z,27.03
2023-04-16T06:54:00.034Z,28.03
2023-04-16T06:56:28.094Z,26.30
2023-04-16T06:58:57.150Z,28.07
2023-04-16T07:01:25.351Z,28.60
2023-04-16T07:03:53.789Z,27.70
2023-04-16T07:06:23.431Z,28.40
2023-04-16T07:08:51.537Z,29.33
2023-04-16T07:11:20.921Z,26.93
2023-04-16T07:13:49.101Z,26.43
2023-04-16T07:16:17.259Z,27.90
2023-04-16T07:18:45.332Z,27.30
2023-04-16T07:21:13.428Z,27.13
2023-04-16T07:23:43.032Z,27.37
2023-04-16T07:26:11.679Z,27.07
2023-04-16T07:28:39.770Z,26.83
2023-04-16T07:31:07.963Z,24.97
2023-04-16T07:33:36.023Z,25.63
2023-04-16T07:36:04.165Z,27.57
2023-04-16T07:38:32.310Z,25.57
2023-04-16T07:41:01.940Z,26.60
2023-04-16T07:43:30.044Z,25.47
2023-04-16T07:45:58.100Z,25.60
2023-04-16T07:48:26.575Z,25.87
2023-04-16T07:50:54.676Z,28.63
2023-04-16T07:53:22.792Z,28.07
2023-04-16T07:55:50.911Z,25.20
2023-04-16T07:58:20.449Z,25.30
2023-04-16T08:00:49.792Z,25.90
2023-04-16T08:03:19.570Z,25.93
2023-04-16T08:05:47.850Z,26.30
2023-04-16T08:08:16.114Z,27.33
2023-04-16T08:10:44.235Z,26.00
2023-04-16T08:13:12.379Z,25.53
2023-04-16T08:15:41.954Z,24.90
2023-04-16T08:18:12.961Z,26.40
2023-04-16T08:20:41.163Z,25.70
2023-04-16T08:23:09.322Z,24.83
2023-04-16T08:25:37.393Z,26.03
2023-04-16T08:28:05.911Z,24.80
2023-04-16T08:30:34.365Z,24.80
2023-04-16T08:33:04.228Z,27.30
2023-04-16T08:35:32.484Z,25.50
2023-04-16T08:38:02.351Z,24.97
2023-04-16T08:40:32.385Z,26.23
2023-04-16T08:43:01.695Z,25.23
2023-04-16T08:45:30.297Z,24.27
2023-04-16T08:47:58.527Z,25.13
2023-04-16T08:50:28.658Z,25.07
2023-04-16T08:53:00.605Z,24.80
2023-04-16T08:55:36.995Z,24.60
2023-04-16T08:58:10.575Z,24.20
2023-04-16T09:00:40.999Z,24.37
2023-04-16T09:03:10.569Z,23.80
2023-04-16T09:05:40.911Z,23.60
2023-04-16T09:08:09.361Z,24.05
2023-04-16T09:10:37.562Z,26.45
2023-04-16T09:13:05.865Z,24.77
2023-04-16T09:15:36.593Z,24.90
2023-04-16T09:18:05.061Z,25.50
2023-04-16T09:20:33.220Z,25.03
2023-04-16T09:23:03.123Z,25.37
2023-04-16T09:25:34.992Z,25.47
2023-04-16T09:28:03.161Z,24.90
2023-04-16T09:30:31.275Z,25.37
2023-04-16T09:33:16.752Z,23.87
2023-04-16T09:35:49.399Z,25.30
2023-04-16T09:38:19.377Z,24.97
2023-04-16T09:40:48.538Z,24.20
2023-04-16T09:43:18.262Z,23.73
2023-04-16T09:45:51.005Z,24.50
2023-04-16T09:48:30.366Z,24.70
2023-04-16T09:50:58.745Z,25.30
2023-04-16T09:53:33.027Z,24.10
2023-04-16T09:56:02.733Z,26.07
2023-04-16T09:58:30.915Z,23.47
2023-04-16T10:01:02.801Z,25.73
2023-04-16T10:03:32.645Z,24.17
2023-04-16T10:06:02.848Z,25.50
2023-04-16T10:08:32.384Z,24.00
2023-04-16T10:11:01.058Z,25.77
2023-04-16T10:13:31.254Z,26.40
2023-04-16T10:15:59.593Z,26.30
2023-04-16T10:18:28.479Z,25.70
2023-04-16T10:20:56.763Z,26.07
2023-04-16T10:23:24.904Z,25.20
2023-04-16T10:25:57.594Z,24.93
2023-04-16T10:28:27.144Z,25.13
2023-04-16T10:30:57.817Z,24.70
2023-04-16T10:33:28.940Z,24.80
2023-04-16T10:36:09.786Z,23.93
2023-04-16T10:38:40.907Z,25.87
2023-04-16T10:41:10.986Z,25.43
2023-04-16T10:43:43.927Z,25.03
2023-04-16T10:46:23.258Z,24.63
2023-04-16T10:48:54.466Z,23.17
2023-04-16T10:51:31.455Z,25.10
2023-04-16T10:54:04.963Z,23.33
2023-04-16T10:56:36.049Z,24.70
2023-04-16T10:59:06.617Z,24.10
2023-04-16T11:01:36.170Z,24.53
2023-04-16T11:04:29.829Z,24.67
2023-04-16T11:07:08.818Z,23.83
2023-04-16T11:09:48.256Z,22.20
2023-04-16T11:12:18.867Z,23.33
2023-04-16T11:14:49.681Z,23.13
2023-04-16T11:17:18.633Z,22.00
2023-04-16T11:19:47.361Z,22.93
2023-04-16T11:22:18.177Z,21.87
2023-04-16T11:24:47.327Z,22.73
2023-04-16T11:27:17.151Z,22.90
2023-04-16T11:29:47.452Z,20.37
2023-04-16T11:32:22.940Z,21.70
2023-04-16T11:34:51.271Z,21.40
2023-04-16T11:37:22.590Z,20.27
2023-04-16T11:39:52.051Z,20.30
2023-04-16T11:42:24.775Z,20.83
2023-04-16T11:44:54.652Z,21.90
2023-04-16T11:47:23.912Z,20.70
2023-04-16T11:49:52.666Z,21.47
2023-04-16T11:52:28.484Z,21.47
2023-04-16T11:54:56.898Z,20.77
2023-04-16T11:57:31.441Z,20.80
2023-04-16T12:00:04.052Z,20.67
2023-04-16T12:02:38.060Z,21.40
2023-04-16T12:05:26.656Z,20.03
2023-04-16T12:07:54.821Z,19.23
2023-04-16T12:10:22.984Z,20.00
2023-04-16T12:12:52.520Z,19.83
2023-04-16T12:15:20.709Z,19.63
2023-04-16T12:17:50.604Z,19.60
2023-04-16T12:20:18.880Z,19.40
2023-04-16T12:22:49.703Z,17.53
2023-04-16T12:25:19.060Z,18.20
2023-04-16T12:27:51.486Z,17.90
2023-04-16T12:30:23.872Z,17.30
2023-04-16T12:32:55.555Z,17.67
2023-04-16T12:35:32.343Z,16.30
2023-04-16T12:38:01.005Z,15.73
2023-04-16T12:40:29.388Z,15.50
2023-04-16T12:42:57.574Z,15.70
2023-04-16T12:45:27.208Z,14.90
2023-04-16T12:47:55.919Z,16.20
2023-04-16T12:50:24.272Z,15.93
2023-04-16T12:52:52.470Z,15.90
2023-04-16T12:55:20.901Z,16.13
2023-04-16T12:57:49.903Z,16.20
2023-04-16T13:00:18.577Z,16.60
2023-04-16T13:02:48.687Z,16.23
2023-04-16T13:05:19.313Z,16.17
2023-04-16T13:07:47.858Z,15.83
2023-04-16T13:10:16.801Z,16.27
2023-04-16T13:12:46.706Z,16.73
2023-04-16T13:15:14.944Z,16.57
2023-04-16T13:17:43.152Z,15.80
2023-04-16T13:20:13.045Z,17.33
2023-04-16T13:22:41.365Z,15.63
2023-04-16T13:25:10.614Z,16.17
2023-04-16T13:27:38.692Z,16.90
2023-04-16T13:30:08.871Z,16.43
2023-04-16T13:32:37.181Z,17.13
2023-04-16T13:35:05.876Z,17.10
2023-04-16T13:37:36.200Z,16.53
2023-04-16T13:40:04.398Z,16.60
2023-04-16T13:42:32.563Z,15.83
2023-04-16T13:45:01.403Z,16.37
2023-04-16T13:47:30.184Z,16.90
2023-04-16T13:49:58.470Z,16.60
2023-04-16T13:52:26.610Z,16.90
2023-04-16T13:54:58.417Z,16.67
2023-04-16T13:57:29.020Z,17.93
2023-04-16T13:59:57.427Z,16.63
2023-04-16T14:02:26.671Z,16.50
2023-04-16T14:04:54.985Z,17.23
2023-04-16T14:07:26.237Z,16.30
2023-04-16T14:09:55.980Z,17.10
2023-04-16T14:12:24.131Z,18.17
2023-04-16T14:14:52.261Z,18.30
2023-04-16T14:17:20.428Z,18.17
2023-04-16T14:19:48.601Z,18.10
2023-04-16T14:22:17.851Z,17.57
2023-04-16T14:24:46.147Z,17.70
2023-04-16T14:27:17.012Z,18.23
2023-04-16T14:29:46.529Z,18.70
2023-04-16T14:32:14.682Z,19.00
2023-04-16T14:34:42.819Z,18.90
2023-04-16T14:37:10.975Z,19.03
2023-04-16T14:39:39.799Z,19.67
2023-04-16T14:42:08.191Z,19.87
2023-04-16T14:44:37.822Z,19.67
2023-04-16T14:47:06.140Z,19.80
2023-04-16T14:49:35.046Z,18.87
2023-04-16T14:52:05.569Z,18.50
2023-04-16T14:54:34.008Z,19.57
2023-04-16T14:57:02.496Z,19.00
2023-04-16T14:59:31.474Z,20.47
2023-04-16T15:02:01.189Z,20.47
2023-04-16T15:04:30.873Z,20.10
2023-04-16T15:06:59.266Z,20.83
2023-04-16T15:09:27.832Z,20.83
2023-04-16T15:11:56.988Z,20.07
2023-04-16T15:14:25.300Z,20.07
2023-04-16T15:16:54.186Z,20.87
2023-04-16T15:19:23.796Z,19.43
2023-04-16T15:21:51.967Z,21.27
2023-04-16T15:24:20.076Z,20.27
2023-04-16T15:26:48.258Z,23.40
2023-04-16T15:29:16.330Z,21.97
2023-04-16T15:31:44.448Z,21.33
2023-04-16T15:34:12.760Z,21.60
2023-04-16T15:36:43.223Z,20.80
2023-04-16T15:39:11.956Z,21.87
2023-04-16T15:41:57.070Z,20.67
2023-04-16T15:44:28.564Z,21.10
2023-04-16T15:46:56.789Z,21.73
2023-04-16T15:49:25.571Z,22.37
2023-04-16T15:51:55.260Z,21.97
2023-04-16T15:54:23.498Z,21.37
2023-04-16T15:56:52.355Z,21.70
2023-04-16T15:59:20.616Z,21.17
2023-04-16T16:01:49.082Z,21.27
2023-04-16T16:04:17.499Z,20.73
2023-04-16T16:06:45.876Z,20.40
2023-04-16T16:09:15.334Z,19.20
2023-04-16T16:11:43.464Z,20.97
2023-04-16T16:14:11.593Z,19.27
2023-04-16T16:16:40.285Z,19.03
2023-04-16T16:19:08.610Z,19.87
2023-04-16T16:21:37.047Z,19.30
2023-04-16T16:24:05.335Z,20.17
2023-04-16T16:26:35.109Z,21.03
2023-04-16T16:29:03.280Z,20.97
2023-04-16T16:31:31.836Z,20.57
2023-04-16T16:34:00.074Z,21.90
2023-04-16T16:36:29.689Z,22.60
2023-04-16T16:38:58.323Z,22.20
2023-04-16T16:41:26.561Z,23.13
2023-04-16T16:43:56.903Z,24.67
2023-04-16T16:46:25.339Z,24.57
2023-04-16T16:48:53.548Z,25.33
2023-04-16T16:51:21.841Z,25.73
2023-04-16T16:53:49.997Z,26.70
2023-04-16T16:56:18.379Z,26.80
2023-04-16T16:58:46.663Z,26.93
2023-04-16T17:01:16.262Z,26.07
2023-04-16T17:03:44.571Z,26.80
2023-04-16T17:06:12.862Z,25.77
2023-04-16T17:08:41.047Z,24.10
2023-04-16T17:11:09.252Z,25.83
2023-04-16T17:13:37.431Z,26.70
2023-04-16T17:16:05.828Z,26.43
2023-04-16T17:18:35.533Z,29.30
2023-04-16T17:21:03.673Z,27.00
2023-04-16T17:23:31.747Z,27.63
2023-04-16T17:26:00.484Z,27.33
2023-04-16T17:28:28.642Z,28.50
2023-04-16T17:30:57.245Z,29.30
2023-04-16T17:33:25.383Z,29.90
2023-04-16T17:35:54.909Z,28.17
2023-04-16T17:38:23.048Z,29.77
2023-04-16T17:40:51.109Z,29.47
2023-04-16T17:43:19.291Z,29.80
2023-04-16T17:45:47.642Z,29.93
2023-04-16T17:48:15.898Z,28.83
2023-04-16T17:50:44.062Z,31.83
2023-04-16T17:53:13.700Z,30.57
2023-04-16T17:55:42.752Z,29.60
2023-04-16T17:58:10.912Z,30.27
2023-04-16T18:00:38.993Z,30.30
2023-04-16T18:03:09.745Z,30.43
2023-04-16T18:05:37.975Z,31.40
2023-04-16T18:08:06.544Z,32.50
2023-04-16T18:10:36.197Z,32.33
2023-04-16T18:13:04.368Z,32.00
2023-04-16T18:15:32.526Z,31.23
2023-04-16T18:18:00.763Z,32.27
2023-04-16T18:20:28.950Z,31.97
2023-04-16T18:22:57.179Z,28.33
2023-04-16T18:25:33.685Z,29.40
2023-04-16T18:28:06.295Z,28.20
2023-04-16T18:30:35.506Z,28.40
2023-04-16T18:33:25.187Z,29.77
2023-04-16T18:35:51.953Z,30.73
2023-04-16T18:38:20.191Z,29.10
2023-04-16T18:40:49.769Z,29.00
2023-04-16T18:43:19.317Z,28.90
2023-04-16T18:45:47.454Z,30.17
2023-04-16T18:48:15.831Z,30.07
2023-04-16T18:50:44.029Z,28.00
2023-04-16T18:53:12.112Z,28.40
2023-04-16T18:55:40.379Z,29.23
2023-04-16T18:58:08.651Z,29.87
2023-04-16T19:00:38.296Z,29.23
2023-04-16T19:03:07.705Z,29.20
2023-04-16T19:05:36.439Z,27.90
2023-04-16T19:08:04.637Z,27.20
2023-04-16T19:10:32.862Z,28.13
2023-04-16T19:13:01.242Z,26.80
2023-04-16T19:15:31.629Z,26.80
2023-04-16T19:18:02.740Z,27.07
2023-04-16T19:20:30.921Z,28.70
2023-04-16T19:22:59.163Z,29.93
2023-04-16T19:25:27.263Z,28.60
2023-04-16T19:27:55.959Z,28.97
2023-04-16T19:30:24.206Z,28.87
2023-04-16T19:32:55.034Z,27.77
2023-04-16T19:35:25.050Z,27.63
2023-04-16T19:37:56.290Z,28.43
2023-04-16T19:40:24.469Z,29.70
2023-04-16T19:42:52.613Z,30.10
2023-04-16T19:45:25.691Z,30.83
2023-04-16T19:47:54.312Z,27.57
2023-04-16T19:50:24.271Z,27.70
2023-04-16T19:52:52.572Z,28.40
2023-04-16T19:55:20.960Z,26.93
2023-04-16T19:57:49.370Z,29.20
2023-04-16T20:00:18.188Z,27.40
2023-04-16T20:02:46.533Z,28.13
2023-04-16T20:05:15.327Z,28.00
2023-04-16T20:07:44.980Z,28.40
2023-04-16T20:10:13.231Z,27.47
2023-04-16T20:12:41.529Z,28.20
2023-04-16T20:15:10.725Z,28.07
2023-04-16T20:17:39.149Z,27.63
2023-04-16T20:20:10.252Z,27.37
2023-04-16T20:22:38.718Z,28.97
2023-04-16T20:25:10.103Z,26.00
2023-04-16T20:27:38.552Z,27.77
2023-04-16T20:30:07.980Z,28.87
2023-04-16T20:32:38.194Z,27.43
2023-04-16T20:35:10.848Z,27.00
2023-04-16T20:37:39.879Z,26.47
2023-04-16T20:40:11.148Z,26.83
2023-04-16T20:42:40.888Z,26.30
2023-04-16T20:45:12.585Z,26.73
2023-04-16T20:47:41.069Z,27.73
2023-04-16T20:50:11.165Z,25.60
2023-04-16T20:52:39.377Z,25.60
2023-04-16T20:55:10.141Z,27.60
2023-04-16T20:57:38.535Z,26.73
2023-04-16T21:00:12.485Z,28.03
2023-04-16T21:02:44.117Z,28.03
2023-04-16T21:05:15.000Z,28.17
2023-04-16T21:07:43.343Z,29.10
2023-04-16T21:10:22.702Z,27.93
2023-04-16T21:12:51.073Z,26.57
2023-04-16T21:15:28.595Z,27.60
2023-04-16T21:18:23.713Z,28.07
2023-04-16T21:20:52.257Z,31.35
2023-04-16T21:23:23.717Z,29.83
2023-04-16T21:26:01.317Z,29.80
2023-04-16T21:28:35.390Z,27.47
2023-04-16T21:31:08.669Z,28.53
2023-04-16T21:33:37.248Z,27.47
2023-04-16T21:36:09.455Z,29.03
2023-04-16T21:38:47.547Z,27.40
2023-04-16T21:41:38.359Z,27.83
2023-04-16T21:44:25.472Z,29.92
2023-04-16T21:46:56.114Z,26.80
2023-04-16T21:49:24.843Z,28.07
2023-04-16T21:51:59.446Z,24.73
2023-04-16T21:54:27.632Z,25.37
2023-04-16T21:56:59.479Z,25.00
2023-04-16T21:59:27.831Z,24.90
2023-04-16T22:01:56.431Z,23.53
2023-04-16T22:04:26.492Z,24.30
2023-04-16T22:06:56.646Z,24.33
2023-04-16T22:09:26.468Z,26.40
2023-04-16T22:11:59.826Z,26.27
2023-04-16T22:14:29.567Z,26.73
2023-04-16T22:16:58.693Z,26.20
2023-04-16T22:19:27.418Z,25.70
2023-04-16T22:21:56.260Z,28.53
2023-04-16T22:24:24.628Z,29.27
2023-04-16T22:26:52.757Z,27.63
2023-04-16T22:29:22.358Z,28.43
2023-04-16T22:31:50.513Z,27.10
2023-04-16T22:34:20.016Z,28.40
2023-04-16T22:36:51.729Z,27.80
2023-04-16T22:39:22.844Z,28.70
2023-04-16T22:41:51.630Z,28.23
2023-04-16T22:44:24.239Z,27.10
2023-04-16T22:46:55.470Z,28.40
2023-04-16T22:49:23.812Z,27.80
2023-04-16T22:51:52.010Z,26.93
2023-04-16T22:54:20.079Z,27.00
2023-04-16T22:56:48.619Z,27.17
2023-04-16T22:59:16.800Z,26.33
2023-04-16T23:01:46.307Z,28.20
2023-04-16T23:04:16.198Z,26.70
2023-04-16T23:06:44.451Z,26.70
2023-04-16T23:09:14.199Z,25.93
2023-04-16T23:11:42.566Z,26.50
2023-04-16T23:14:10.814Z,26.50
2023-04-16T23:16:38.929Z,26.00
2023-04-16T23:19:14.683Z,25.57
2023-04-16T23:21:42.952Z,26.43
2023-04-16T23:24:11.107Z,26.43
2023-04-16T23:26:39.192Z,26.57
2023-04-16T23:29:07.249Z,27.60
2023-04-16T23:31:35.483Z,26.93
2023-04-16T23:34:03.617Z,27.10
2023-04-16T23:36:33.096Z,26.33
2023-04-16T23:39:01.146Z,28.20
2023-04-16T23:41:29.259Z,27.27
2023-04-16T23:43:57.523Z,28.13
2023-04-16T23:46:26.268Z,26.07
2023-04-16T23:48:55.254Z,27.90
2023-04-16T23:51:23.448Z,27.60
2023-04-16T23:53:52.961Z,27.30
2023-04-16T23:56:21.220Z,29.03
2023-04-16T23:58:49.300Z,27.90
